Terminal Aerodrome Forecast
Issued by NWS

Home | Current Version | Previous Version | Text Only | Print | Product List | Glossary On
Versions: 1 2 3 4 5 6 7 8 9 10 11 12 13
000
FTUS44 KTSA 291600 AAA
TAFMLC
TAF AMD
KMLC 291626Z 2916/3012 18012G20KT P6SM SKC
     FM292000 23010KT P6SM BKN200
     FM300000 01008KT P6SM BKN050
     FM300900 03005KT P6SM SCT150=

USA.gov is the U.S. government's official web portal to all federal, state and local government web resources and services.